sensor_id;sensor_type;location;lat;lon;timestamp;pressure;altitude;pressure_sealevel;temperature;humidity
10474;BME280;5284;50.446;7.904;2022-09-14T00:03:05;97636.59;;;17.80;100.00
10474;BME280;5284;50.446;7.904;2022-09-14T00:08:10;97624.34;;;17.78;100.00
10474;BME280;5284;50.446;7.904;2022-09-14T00:13:13;97601.94;;;17.77;100.00
10474;BME280;5284;50.446;7.904;2022-09-14T00:18:17;97588.84;;;17.74;100.00
10474;BME280;5284;50.446;7.904;2022-09-14T00:23:21;97612.91;;;17.76;100.00
10474;BME280;5284;50.446;7.904;2022-09-14T00:28:25;97598.59;;;17.75;100.00
10474;BME280;5284;50.446;7.904;2022-09-14T00:33:27;97597.34;;;17.71;100.00
10474;BME280;5284;50.446;7.904;2022-09-14T00:38:31;97596.84;;;17.61;100.00
10474;BME280;5284;50.446;7.904;2022-09-14T00:43:51;97595.00;;;17.62;100.00
10474;BME280;5284;50.446;7.904;2022-09-14T00:48:55;97593.91;;;17.56;100.00
10474;BME280;5284;50.446;7.904;2022-09-14T00:54:01;97592.06;;;17.57;100.00
10474;BME280;5284;50.446;7.904;2022-09-14T00:59:08;97602.22;;;17.55;100.00
10474;BME280;5284;50.446;7.904;2022-09-14T01:04:14;97604.50;;;17.58;100.00
10474;BME280;5284;50.446;7.904;2022-09-14T01:09:28;97599.94;;;17.58;100.00
10474;BME280;5284;50.446;7.904;2022-09-14T01:14:41;97600.56;;;17.60;100.00
10474;BME280;5284;50.446;7.904;2022-09-14T01:20:06;97588.56;;;17.63;100.00
10474;BME280;5284;50.446;7.904;2022-09-14T01:25:27;97595.00;;;17.62;100.00
10474;BME280;5284;50.446;7.904;2022-09-14T01:30:40;97591.66;;;17.60;100.00
10474;BME280;5284;50.446;7.904;2022-09-14T01:35:47;97582.53;;;17.61;100.00
10474;BME280;5284;50.446;7.904;2022-09-14T01:40:53;97571.75;;;17.61;100.00
10474;BME280;5284;50.446;7.904;2022-09-14T01:46:03;97567.16;;;17.61;100.00
10474;BME280;5284;50.446;7.904;2022-09-14T01:51:10;97555.34;;;17.62;100.00
10474;BME280;5284;50.446;7.904;2022-09-14T01:56:17;97552.66;;;17.62;100.00
10474;BME280;5284;50.446;7.904;2022-09-14T02:01:30;97547.25;;;17.62;100.00
10474;BME280;5284;50.446;7.904;2022-09-14T02:06:38;97548.94;;;17.63;100.00
10474;BME280;5284;50.446;7.904;2022-09-14T02:11:42;97530.91;;;17.64;100.00
10474;BME280;5284;50.446;7.904;2022-09-14T02:16:46;97520.75;;;17.66;100.00
10474;BME280;5284;50.446;7.904;2022-09-14T02:21:50;97522.41;;;17.67;100.00
10474;BME280;5284;50.446;7.904;2022-09-14T02:26:54;97526.13;;;17.66;100.00
10474;BME280;5284;50.446;7.904;2022-09-14T02:32:11;97524.03;;;17.61;100.00
10474;BME280;5284;50.446;7.904;2022-09-14T02:37:19;97526.72;;;17.55;100.00
10474;BME280;5284;50.446;7.904;2022-09-14T02:42:29;97521.50;;;17.53;100.00
10474;BME280;5284;50.446;7.904;2022-09-14T02:47:48;97508.66;;;17.55;100.00
10474;BME280;5284;50.446;7.904;2022-09-14T02:53:00;97503.47;;;17.54;100.00
10474;BME280;5284;50.446;7.904;2022-09-14T02:58:07;97500.31;;;17.50;100.00
10474;BME280;5284;50.446;7.904;2022-09-14T03:03:13;97503.03;;;17.50;100.00
10474;BME280;5284;50.446;7.904;2022-09-14T03:08:17;97507.16;;;17.46;100.00
10474;BME280;5284;50.446;7.904;2022-09-14T03:13:19;97507.16;;;17.46;100.00
10474;BME280;5284;50.446;7.904;2022-09-14T03:18:24;97498.03;;;17.47;100.00
10474;BME280;5284;50.446;7.904;2022-09-14T03:23:27;97494.47;;;17.47;100.00
10474;BME280;5284;50.446;7.904;2022-09-14T03:28:29;97487.81;;;17.43;100.00
10474;BME280;5284;50.446;7.904;2022-09-14T03:33:34;97475.38;;;17.42;100.00
10474;BME280;5284;50.446;7.904;2022-09-14T03:38:37;97477.03;;;17.43;100.00
10474;BME280;5284;50.446;7.904;2022-09-14T03:43:40;97472.69;;;17.42;100.00
10474;BME280;5284;50.446;7.904;2022-09-14T03:48:45;97469.34;;;17.40;100.00
10474;BME280;5284;50.446;7.904;2022-09-14T03:53:48;97463.16;;;17.39;100.00
10474;BME280;5284;50.446;7.904;2022-09-14T03:58:51;97459.59;;;17.39;100.00
10474;BME280;5284;50.446;7.904;2022-09-14T04:03:55;97445.09;;;17.40;100.00
10474;BME280;5284;50.446;7.904;2022-09-14T04:08:58;97441.59;;;17.39;100.00
10474;BME280;5284;50.446;7.904;2022-09-14T04:14:02;97438.25;;;17.37;100.00
10474;BME280;5284;50.446;7.904;2022-09-14T04:19:07;97445.31;;;17.38;100.00
10474;BME280;5284;50.446;7.904;2022-09-14T04:24:11;97445.09;;;17.40;100.00
10474;BME280;5284;50.446;7.904;2022-09-14T04:29:16;97435.56;;;17.37;100.00
10474;BME280;5284;50.446;7.904;2022-09-14T04:34:21;97435.16;;;17.40;100.00
10474;BME280;5284;50.446;7.904;2022-09-14T04:39:29;97439.72;;;17.40;100.00
10474;BME280;5284;50.446;7.904;2022-09-14T04:44:32;97442.63;;;17.38;100.00
10474;BME280;5284;50.446;7.904;2022-09-14T04:49:36;97434.31;;;17.40;100.00
10474;BME280;5284;50.446;7.904;2022-09-14T04:54:39;97426.84;;;17.42;100.00
10474;BME280;5284;50.446;7.904;2022-09-14T04:59:42;97422.31;;;17.42;100.00
10474;BME280;5284;50.446;7.904;2022-09-14T05:04:46;97426.03;;;17.41;100.00
10474;BME280;5284;50.446;7.904;2022-09-14T05:09:49;97422.50;;;17.41;100.00
10474;BME280;5284;50.446;7.904;2022-09-14T05:14:51;97420.03;;;17.39;100.00
10474;BME280;5284;50.446;7.904;2022-09-14T05:19:56;97417.31;;;17.39;100.00
10474;BME280;5284;50.446;7.904;2022-09-14T05:24:58;97416.47;;;17.39;100.00
10474;BME280;5284;50.446;7.904;2022-09-14T05:30:01;97413.59;;;17.40;100.00
10474;BME280;5284;50.446;7.904;2022-09-14T05:35:06;97408.22;;;17.40;100.00
10474;BME280;5284;50.446;7.904;2022-09-14T05:40:09;97406.94;;;17.43;100.00
10474;BME280;5284;50.446;7.904;2022-09-14T05:45:13;97405.28;;;17.42;100.00
10474;BME280;5284;50.446;7.904;2022-09-14T05:50:17;97406.38;;;17.47;100.00
10474;BME280;5284;50.446;7.904;2022-09-14T05:55:19;97392.66;;;17.49;100.00
10474;BME280;5284;50.446;7.904;2022-09-14T06:00:22;97401.59;;;17.49;100.00
10474;BME280;5284;50.446;7.904;2022-09-14T06:05:26;97403.25;;;17.50;100.00
10474;BME280;5284;50.446;7.904;2022-09-14T06:10:29;97404.28;;;17.49;100.00
10474;BME280;5284;50.446;7.904;2022-09-14T06:15:32;97407.81;;;17.50;100.00
10474;BME280;5284;50.446;7.904;2022-09-14T06:20:36;97400.34;;;17.52;100.00
10474;BME280;5284;50.446;7.904;2022-09-14T06:25:39;97399.75;;;17.56;100.00
10474;BME280;5284;50.446;7.904;2022-09-14T06:30:43;97396.66;;;17.59;100.00
10474;BME280;5284;50.446;7.904;2022-09-14T06:35:58;97391.88;;;17.61;100.00
10474;BME280;5284;50.446;7.904;2022-09-14T06:41:03;97399.56;;;17.64;100.00
10474;BME280;5284;50.446;7.904;2022-09-14T06:46:11;97393.81;;;17.74;100.00
10474;BME280;5284;50.446;7.904;2022-09-14T06:51:18;97392.16;;;17.79;100.00
10474;BME280;5284;50.446;7.904;2022-09-14T06:56:21;97385.09;;;17.85;100.00
10474;BME280;5284;50.446;7.904;2022-09-14T07:01:24;97391.78;;;17.95;100.00
10474;BME280;5284;50.446;7.904;2022-09-14T07:06:31;97389.72;;;18.04;100.00
10474;BME280;5284;50.446;7.904;2022-09-14T07:11:34;97392.44;;;18.10;100.00
10474;BME280;5284;50.446;7.904;2022-09-14T07:16:38;97384.97;;;18.12;100.00
10474;BME280;5284;50.446;7.904;2022-09-14T07:21:43;97387.06;;;18.23;100.00
10474;BME280;5284;50.446;7.904;2022-09-14T07:26:46;97386.84;;;18.18;100.00
10474;BME280;5284;50.446;7.904;2022-09-14T07:31:51;97381.47;;;18.25;100.00
10474;BME280;5284;50.446;7.904;2022-09-14T07:36:56;97384.97;;;18.25;100.00
10474;BME280;5284;50.446;7.904;2022-09-14T07:41:59;97382.50;;;18.17;100.00
10474;BME280;5284;50.446;7.904;2022-09-14T07:47:02;97370.25;;;18.08;100.00
10474;BME280;5284;50.446;7.904;2022-09-14T07:52:06;97354.72;;;18.30;100.00
10474;BME280;5284;50.446;7.904;2022-09-14T07:57:10;97343.28;;;18.41;100.00
10474;BME280;5284;50.446;7.904;2022-09-14T08:02:13;97349.94;;;18.51;100.00
10474;BME280;5284;50.446;7.904;2022-09-14T08:07:17;97368.19;;;18.36;100.00
10474;BME280;5284;50.446;7.904;2022-09-14T08:12:20;97376.31;;;18.30;100.00
10474;BME280;5284;50.446;7.904;2022-09-14T08:17:22;97375.44;;;18.16;100.00
10474;BME280;5284;50.446;7.904;2022-09-14T08:22:26;97378.53;;;18.20;100.00
10474;BME280;5284;50.446;7.904;2022-09-14T08:27:29;97382.06;;;18.20;100.00
10474;BME280;5284;50.446;7.904;2022-09-14T08:32:32;97393.31;;;18.24;100.00
10474;BME280;5284;50.446;7.904;2022-09-14T08:37:37;97404.50;;;18.21;100.00
10474;BME280;5284;50.446;7.904;2022-09-14T08:42:39;97399.94;;;18.21;100.00
10474;BME280;5284;50.446;7.904;2022-09-14T08:47:42;97403.25;;;18.23;100.00
10474;BME280;5284;50.446;7.904;2022-09-14T08:52:48;97399.31;;;18.26;100.00
10474;BME280;5284;50.446;7.904;2022-09-14T08:57:57;97396.44;;;18.34;100.00
10474;BME280;5284;50.446;7.904;2022-09-14T09:08:47;97394.38;;;18.48;100.00
10474;BME280;5284;50.446;7.904;2022-09-14T09:13:54;97405.78;;;18.38;100.00
10474;BME280;5284;50.446;7.904;2022-09-14T09:19:01;97400.22;;;18.58;100.00
10474;BME280;5284;50.446;7.904;2022-09-14T09:24:13;97396.44;;;18.79;100.00
10474;BME280;5284;50.446;7.904;2022-09-14T09:29:20;97376.88;;;18.96;100.00
10474;BME280;5284;50.446;7.904;2022-09-14T09:34:42;97392.22;;;19.28;100.00
10474;BME280;5284;50.446;7.904;2022-09-14T09:39:58;97398.44;;;19.29;100.00
10474;BME280;5284;50.446;7.904;2022-09-14T09:45:04;97375.59;;;19.75;100.00
10474;BME280;5284;50.446;7.904;2022-09-14T09:50:19;97384.53;;;19.76;100.00
10474;BME280;5284;50.446;7.904;2022-09-14T09:55:31;97365.06;;;19.98;100.00
10474;BME280;5284;50.446;7.904;2022-09-14T10:00:37;97354.78;;;20.13;100.00
10474;BME280;5284;50.446;7.904;2022-09-14T10:05:40;97350.03;;;20.09;100.00
10474;BME280;5284;50.446;7.904;2022-09-14T10:10:48;97359.44;;;20.30;100.00
10474;BME280;5284;50.446;7.904;2022-09-14T10:15:51;97344.28;;;20.23;100.00
10474;BME280;5284;50.446;7.904;2022-09-14T10:21:06;97345.44;;;20.58;100.00
10474;BME280;5284;50.446;7.904;2022-09-14T10:31:31;97355.84;;;20.06;100.00
10474;BME280;5284;50.446;7.904;2022-09-14T10:36:42;97363.25;;;19.86;100.00
10474;BME280;5284;50.446;7.904;2022-09-14T10:41:54;97347.91;;;19.73;100.00
10474;BME280;5284;50.446;7.904;2022-09-14T10:47:15;97342.94;;;19.70;100.00
10474;BME280;5284;50.446;7.904;2022-09-14T10:52:32;97336.56;;;19.58;100.00
10474;BME280;5284;50.446;7.904;2022-09-14T10:57:47;97336.16;;;19.48;100.00
10474;BME280;5284;50.446;7.904;2022-09-14T11:03:15;97337.47;;;19.39;100.00
10474;BME280;5284;50.446;7.904;2022-09-14T11:08:29;97315.41;;;19.42;100.00
10474;BME280;5284;50.446;7.904;2022-09-14T11:13:55;97328.50;;;19.39;100.00
10474;BME280;5284;50.446;7.904;2022-09-14T11:19:05;97294.38;;;19.44;100.00
10474;BME280;5284;50.446;7.904;2022-09-14T11:24:17;97280.56;;;19.59;100.00
10474;BME280;5284;50.446;7.904;2022-09-14T11:29:26;97285.19;;;19.83;100.00
10474;BME280;5284;50.446;7.904;2022-09-14T11:34:33;97288.25;;;20.23;100.00
10474;BME280;5284;50.446;7.904;2022-09-14T11:39:38;97297.59;;;20.27;100.00
10474;BME280;5284;50.446;7.904;2022-09-14T11:44:45;97305.97;;;20.44;100.00
10474;BME280;5284;50.446;7.904;2022-09-14T11:49:54;97304.03;;;20.51;100.00
10474;BME280;5284;50.446;7.904;2022-09-14T11:55:00;97295.38;;;20.85;100.00
10474;BME280;5284;50.446;7.904;2022-09-14T12:00:07;97288.50;;;21.36;100.00
10474;BME280;5284;50.446;7.904;2022-09-14T12:05:29;97276.06;;;21.65;100.00
10474;BME280;5284;50.446;7.904;2022-09-14T12:11:03;97281.09;;;21.79;100.00
10474;BME280;5284;50.446;7.904;2022-09-14T12:16:08;97266.75;;;22.01;100.00
10474;BME280;5284;50.446;7.904;2022-09-14T12:21:21;97283.97;;;22.07;100.00
10474;BME280;5284;50.446;7.904;2022-09-14T12:26:31;97275.72;;;22.13;100.00
10474;BME280;5284;50.446;7.904;2022-09-14T12:32:01;97276.63;;;21.96;100.00
10474;BME280;5284;50.446;7.904;2022-09-14T12:37:28;97271.28;;;21.60;100.00
10474;BME280;5284;50.446;7.904;2022-09-14T12:42:31;97274.41;;;21.46;100.00
10474;BME280;5284;50.446;7.904;2022-09-14T12:47:48;97270.69;;;21.29;100.00
10474;BME280;5284;50.446;7.904;2022-09-14T12:53:02;97265.78;;;21.19;100.00
10474;BME280;5284;50.446;7.904;2022-09-14T12:58:19;97258.72;;;21.18;100.00
10474;BME280;5284;50.446;7.904;2022-09-14T13:03:44;97248.56;;;20.96;100.00
10474;BME280;5284;50.446;7.904;2022-09-14T13:08:51;97223.63;;;20.87;100.00
10474;BME280;5284;50.446;7.904;2022-09-14T13:13:55;97231.78;;;20.87;100.00
10474;BME280;5284;50.446;7.904;2022-09-14T13:19:02;97224.72;;;20.80;100.00
10474;BME280;5284;50.446;7.904;2022-09-14T13:24:20;97232.31;;;20.96;100.00
10474;BME280;5284;50.446;7.904;2022-09-14T13:29:24;97231.59;;;21.00;100.00
10474;BME280;5284;50.446;7.904;2022-09-14T13:34:30;97222.25;;;20.78;100.00
10474;BME280;5284;50.446;7.904;2022-09-14T13:39:36;97222.03;;;20.80;100.00
10474;BME280;5284;50.446;7.904;2022-09-14T13:44:43;97219.16;;;20.57;100.00
10474;BME280;5284;50.446;7.904;2022-09-14T13:49:50;97225.09;;;20.47;100.00
10474;BME280;5284;50.446;7.904;2022-09-14T13:54:56;97224.16;;;20.35;100.00
10474;BME280;5284;50.446;7.904;2022-09-14T14:00:17;97227.63;;;20.24;100.00
10474;BME280;5284;50.446;7.904;2022-09-14T14:05:45;97236.97;;;19.98;100.00
10474;BME280;5284;50.446;7.904;2022-09-14T14:10:49;97223.56;;;19.85;100.00
10474;BME280;5284;50.446;7.904;2022-09-14T14:15:53;97214.44;;;19.79;100.00
10474;BME280;5284;50.446;7.904;2022-09-14T14:21:09;97245.41;;;19.59;100.00
10474;BME280;5284;50.446;7.904;2022-09-14T14:26:18;97220.97;;;19.41;100.00
10474;BME280;5284;50.446;7.904;2022-09-14T14:31:23;97212.56;;;19.24;100.00
10474;BME280;5284;50.446;7.904;2022-09-14T14:36:28;97197.59;;;19.15;100.00
10474;BME280;5284;50.446;7.904;2022-09-14T14:41:30;97208.91;;;18.99;100.00
10474;BME280;5284;50.446;7.904;2022-09-14T14:46:34;97214.13;;;18.88;100.00
10474;BME280;5284;50.446;7.904;2022-09-14T14:51:39;97228.09;;;18.78;100.00
10474;BME280;5284;50.446;7.904;2022-09-14T14:56:42;97194.91;;;18.65;100.00
10474;BME280;5284;50.446;7.904;2022-09-14T15:01:47;97190.34;;;18.59;100.00
10474;BME280;5284;50.446;7.904;2022-09-14T15:06:52;97188.31;;;18.48;100.00
10474;BME280;5284;50.446;7.904;2022-09-14T15:11:55;97171.94;;;18.43;100.00
10474;BME280;5284;50.446;7.904;2022-09-14T15:16:58;97176.09;;;18.39;100.00
10474;BME280;5284;50.446;7.904;2022-09-14T15:22:02;97179.63;;;18.33;100.00
10474;BME280;5284;50.446;7.904;2022-09-14T15:27:05;97169.44;;;18.42;100.00
10474;BME280;5284;50.446;7.904;2022-09-14T15:32:08;97155.94;;;18.35;100.00
10474;BME280;5284;50.446;7.904;2022-09-14T15:37:12;97137.66;;;18.37;100.00
10474;BME280;5284;50.446;7.904;2022-09-14T15:42:15;97130.81;;;18.41;100.00
10474;BME280;5284;50.446;7.904;2022-09-14T15:47:18;97133.31;;;18.36;100.00
10474;BME280;5284;50.446;7.904;2022-09-14T15:52:24;97126.47;;;18.34;100.00
10474;BME280;5284;50.446;7.904;2022-09-14T15:57:27;97135.22;;;18.29;100.00
10474;BME280;5284;50.446;7.904;2022-09-14T16:02:30;97151.63;;;18.28;100.00
10474;BME280;5284;50.446;7.904;2022-09-14T16:07:34;97159.50;;;18.23;100.00
10474;BME280;5284;50.446;7.904;2022-09-14T16:12:37;97174.44;;;18.19;100.00
10474;BME280;5284;50.446;7.904;2022-09-14T16:17:40;97183.81;;;18.16;100.00
10474;BME280;5284;50.446;7.904;2022-09-14T16:22:44;97188.78;;;18.13;100.00
10474;BME280;5284;50.446;7.904;2022-09-14T16:27:47;97182.56;;;18.12;100.00
10474;BME280;5284;50.446;7.904;2022-09-14T16:32:50;97167.00;;;18.08;100.00
10474;BME280;5284;50.446;7.904;2022-09-14T16:37:54;97157.47;;;18.05;100.00
10474;BME280;5284;50.446;7.904;2022-09-14T16:42:57;97165.75;;;18.04;100.00
10474;BME280;5284;50.446;7.904;2022-09-14T16:48:01;97155.16;;;18.02;100.00
10474;BME280;5284;50.446;7.904;2022-09-14T16:53:05;97153.94;;;17.98;100.00
10474;BME280;5284;50.446;7.904;2022-09-14T16:58:08;97157.06;;;17.95;100.00
10474;BME280;5284;50.446;7.904;2022-09-14T17:03:11;97167.44;;;17.92;100.00
10474;BME280;5284;50.446;7.904;2022-09-14T17:08:15;97175.75;;;17.90;100.00
10474;BME280;5284;50.446;7.904;2022-09-14T17:13:17;97181.13;;;17.90;100.00
10474;BME280;5284;50.446;7.904;2022-09-14T17:18:47;97196.50;;;17.90;100.00
10474;BME280;5284;50.446;7.904;2022-09-14T17:23:51;97196.50;;;17.90;100.00
10474;BME280;5284;50.446;7.904;2022-09-14T17:28:56;97192.16;;;17.89;100.00
10474;BME280;5284;50.446;7.904;2022-09-14T17:34:00;97194.00;;;17.88;100.00
10474;BME280;5284;50.446;7.904;2022-09-14T17:39:05;97191.53;;;17.87;100.00
10474;BME280;5284;50.446;7.904;2022-09-14T17:44:13;97187.38;;;17.84;100.00
10474;BME280;5284;50.446;7.904;2022-09-14T17:49:16;97197.53;;;17.82;100.00
10474;BME280;5284;50.446;7.904;2022-09-14T17:54:20;97192.56;;;17.79;100.00
10474;BME280;5284;50.446;7.904;2022-09-14T17:59:24;97189.88;;;17.79;100.00
10474;BME280;5284;50.446;7.904;2022-09-14T18:04:27;97204.81;;;17.75;100.00
10474;BME280;5284;50.446;7.904;2022-09-14T18:09:32;97205.22;;;17.72;100.00
10474;BME280;5284;50.446;7.904;2022-09-14T18:14:34;97214.97;;;17.67;100.00
10474;BME280;5284;50.446;7.904;2022-09-14T18:19:37;97221.78;;;17.56;100.00
10474;BME280;5284;50.446;7.904;2022-09-14T18:24:42;97239.84;;;17.49;100.00
10474;BME280;5284;50.446;7.904;2022-09-14T18:29:45;97247.09;;;17.42;100.00
10474;BME280;5284;50.446;7.904;2022-09-14T18:34:48;97256.00;;;17.36;100.00
10474;BME280;5284;50.446;7.904;2022-09-14T18:39:52;97266.50;;;17.31;100.00
10474;BME280;5284;50.446;7.904;2022-09-14T18:44:55;97275.00;;;17.28;100.00
10474;BME280;5284;50.446;7.904;2022-09-14T18:49:58;97282.69;;;17.25;100.00
10474;BME280;5284;50.446;7.904;2022-09-14T18:55:02;97291.78;;;17.24;100.00
10474;BME280;5284;50.446;7.904;2022-09-14T19:00:06;97288.47;;;17.22;100.00
10474;BME280;5284;50.446;7.904;2022-09-14T19:05:09;97292.38;;;17.19;100.00
10474;BME280;5284;50.446;7.904;2022-09-14T19:10:14;97293.81;;;17.15;100.00
10474;BME280;5284;50.446;7.904;2022-09-14T19:15:17;97300.66;;;17.18;100.00
10474;BME280;5284;50.446;7.904;2022-09-14T19:20:19;97303.97;;;17.13;100.00
10474;BME280;5284;50.446;7.904;2022-09-14T19:25:24;97303.97;;;17.13;100.00
10474;BME280;5284;50.446;7.904;2022-09-14T19:30:27;97301.28;;;17.13;100.00
10474;BME280;5284;50.446;7.904;2022-09-14T19:35:29;97296.72;;;17.14;100.00
10474;BME280;5284;50.446;7.904;2022-09-14T19:40:33;97285.53;;;17.17;100.00
10474;BME280;5284;50.446;7.904;2022-09-14T19:45:36;97283.22;;;17.14;100.00
10474;BME280;5284;50.446;7.904;2022-09-14T19:50:39;97283.22;;;17.14;100.00
10474;BME280;5284;50.446;7.904;2022-09-14T19:55:44;97296.09;;;17.12;100.00
10474;BME280;5284;50.446;7.904;2022-09-14T20:00:51;97298.78;;;17.12;100.00
10474;BME280;5284;50.446;7.904;2022-09-14T20:06:00;97298.38;;;17.15;100.00
10474;BME280;5284;50.446;7.904;2022-09-14T20:11:05;97305.19;;;17.11;100.00
10474;BME280;5284;50.446;7.904;2022-09-14T20:16:10;97308.75;;;17.11;100.00
10474;BME280;5284;50.446;7.904;2022-09-14T20:21:16;97313.91;;;17.13;100.00
10474;BME280;5284;50.446;7.904;2022-09-14T20:26:21;97322.63;;;17.15;100.00
10474;BME280;5284;50.446;7.904;2022-09-14T20:31:24;97320.78;;;17.15;100.00
10474;BME280;5284;50.446;7.904;2022-09-14T20:36:27;97315.16;;;17.17;100.00
10474;BME280;5284;50.446;7.904;2022-09-14T20:41:34;97323.47;;;17.15;100.00
10474;BME280;5284;50.446;7.904;2022-09-14T20:46:38;97322.63;;;17.15;100.00
10474;BME280;5284;50.446;7.904;2022-09-14T20:51:41;97333.22;;;17.16;100.00
10474;BME280;5284;50.446;7.904;2022-09-14T20:56:46;97336.09;;;17.15;100.00
10474;BME280;5284;50.446;7.904;2022-09-14T21:01:50;97329.25;;;17.12;100.00
10474;BME280;5284;50.446;7.904;2022-09-14T21:06:54;97336.91;;;17.09;100.00
10474;BME280;5284;50.446;7.904;2022-09-14T21:11:59;97332.75;;;17.06;100.00
10474;BME280;5284;50.446;7.904;2022-09-14T21:17:01;97326.31;;;17.01;100.00
10474;BME280;5284;50.446;7.904;2022-09-14T21:22:04;97331.25;;;16.97;100.00
10474;BME280;5284;50.446;7.904;2022-09-14T21:27:09;97335.19;;;16.95;100.00
10474;BME280;5284;50.446;7.904;2022-09-14T21:32:12;97327.28;;;16.93;100.00
10474;BME280;5284;50.446;7.904;2022-09-14T21:37:15;97331.22;;;16.91;100.00
10474;BME280;5284;50.446;7.904;2022-09-14T21:42:19;97334.09;;;16.89;100.00
10474;BME280;5284;50.446;7.904;2022-09-14T21:47:22;97342.41;;;16.88;100.00
10474;BME280;5284;50.446;7.904;2022-09-14T21:52:24;97348.41;;;16.90;100.00
10474;BME280;5284;50.446;7.904;2022-09-14T21:57:29;97342.59;;;16.87;100.00
10474;BME280;5284;50.446;7.904;2022-09-14T22:02:32;97341.50;;;16.81;100.00
10474;BME280;5284;50.446;7.904;2022-09-14T22:07:35;97333.88;;;16.85;100.00
10474;BME280;5284;50.446;7.904;2022-09-14T22:12:39;97333.25;;;16.83;100.00
10474;BME280;5284;50.446;7.904;2022-09-14T22:17:42;97332.38;;;16.76;100.00
10474;BME280;5284;50.446;7.904;2022-09-14T22:22:46;97344.19;;;16.75;100.00
10474;BME280;5284;50.446;7.904;2022-09-14T22:27:50;97346.03;;;16.74;100.00
10474;BME280;5284;50.446;7.904;2022-09-14T22:32:53;97349.56;;;16.75;100.00
10474;BME280;5284;50.446;7.904;2022-09-14T22:37:56;97353.69;;;16.71;100.00
10474;BME280;5284;50.446;7.904;2022-09-14T22:43:00;97353.88;;;16.69;100.00
10474;BME280;5284;50.446;7.904;2022-09-14T22:48:03;97347.69;;;16.69;100.00
10474;BME280;5284;50.446;7.904;2022-09-14T22:53:06;97343.69;;;16.65;100.00
10474;BME280;5284;50.446;7.904;2022-09-14T22:58:12;97339.97;;;16.66;100.00
10474;BME280;5284;50.446;7.904;2022-09-14T23:03:16;97348.25;;;16.64;100.00
10474;BME280;5284;50.446;7.904;2022-09-14T23:08:19;97355.88;;;16.61;100.00
10474;BME280;5284;50.446;7.904;2022-09-14T23:13:23;97354.22;;;16.60;100.00
10474;BME280;5284;50.446;7.904;2022-09-14T23:18:27;97341.78;;;16.59;100.00
10474;BME280;5284;50.446;7.904;2022-09-14T23:23:30;97356.28;;;16.58;100.00
10474;BME280;5284;50.446;7.904;2022-09-14T23:28:35;97353.34;;;16.53;100.00
10474;BME280;5284;50.446;7.904;2022-09-14T23:33:38;97352.53;;;16.52;100.00
10474;BME280;5284;50.446;7.904;2022-09-14T23:38:40;97351.44;;;16.47;100.00
10474;BME280;5284;50.446;7.904;2022-09-14T23:43:45;97354.13;;;16.47;100.00
10474;BME280;5284;50.446;7.904;2022-09-14T23:48:48;97353.03;;;16.41;100.00
10474;BME280;5284;50.446;7.904;2022-09-14T23:53:52;97355.94;;;16.40;100.00
10474;BME280;5284;50.446;7.904;2022-09-14T23:58:56;97360.34;;;16.26;100.00
